createdAt,value
2018-12-19T00:00:34.645Z,45.47
2018-12-19T00:03:08.552Z,39.00
2018-12-19T00:05:43.879Z,42.87
2018-12-19T00:08:21.643Z,43.87
2018-12-19T00:10:52.377Z,41.27
2018-12-19T00:13:22.911Z,39.67
2018-12-19T00:15:53.389Z,36.57
2018-12-19T00:18:23.919Z,40.87
2018-12-19T00:20:54.419Z,42.63
2018-12-19T00:23:25.015Z,42.07
2018-12-19T00:25:55.611Z,35.43
2018-12-19T00:28:28.147Z,36.40
2018-12-19T00:31:00.731Z,40.80
2018-12-19T00:33:33.396Z,38.97
2018-12-19T00:36:06.311Z,37.53
2018-12-19T00:38:38.366Z,42.80
2018-12-19T00:41:08.918Z,39.33
2018-12-19T00:43:39.710Z,40.87
2018-12-19T00:46:10.210Z,38.30
2018-12-19T00:48:40.746Z,39.50
2018-12-19T00:51:11.306Z,43.57
2018-12-19T00:53:41.861Z,40.10
2018-12-19T00:56:12.362Z,38.73
2018-12-19T00:58:42.927Z,39.63
2018-12-19T01:01:13.386Z,36.47
2018-12-19T01:03:43.946Z,35.27
2018-12-19T01:06:14.500Z,38.90
2018-12-19T01:08:45.016Z,38.13
2018-12-19T01:11:15.668Z,41.03
2018-12-19T01:13:47.431Z,38.73
2018-12-19T01:16:17.994Z,42.33
2018-12-19T01:18:48.552Z,41.97
2018-12-19T01:21:19.206Z,36.97
2018-12-19T01:23:49.693Z,40.27
2018-12-19T01:26:20.242Z,40.87
2018-12-19T01:28:50.886Z,39.73
2018-12-19T01:31:21.470Z,37.47
2018-12-19T01:33:52.132Z,39.87
2018-12-19T01:36:22.674Z,42.83
2018-12-19T01:38:53.282Z,42.33
2018-12-19T01:41:23.799Z,37.80
2018-12-19T01:43:54.439Z,38.60
2018-12-19T01:46:25.006Z,39.97
2018-12-19T01:48:55.616Z,35.97
2018-12-19T01:51:26.289Z,39.17
2018-12-19T01:53:56.803Z,39.00
2018-12-19T01:56:27.416Z,37.17
2018-12-19T01:58:57.954Z,42.60
2018-12-19T02:01:28.481Z,41.40
2018-12-19T02:03:59.095Z,37.13
2018-12-19T02:06:29.704Z,38.03
2018-12-19T02:09:00.237Z,38.77
2018-12-19T02:11:30.837Z,41.93
2018-12-19T02:14:01.407Z,36.87
2018-12-19T02:16:32.035Z,41.47
2018-12-19T02:19:02.601Z,41.80
2018-12-19T02:21:33.695Z,40.57
2018-12-19T02:24:04.346Z,42.03
2018-12-19T02:26:35.061Z,42.73
2018-12-19T02:29:05.734Z,44.27
2018-12-19T02:31:36.335Z,42.83
2018-12-19T02:34:07.081Z,50.10
2018-12-19T02:36:37.953Z,45.57
2018-12-19T02:39:09.251Z,45.27
2018-12-19T02:41:39.893Z,44.27
2018-12-19T02:44:10.517Z,46.00
2018-12-19T02:46:41.041Z,48.60
2018-12-19T02:49:11.602Z,43.23
2018-12-19T02:51:42.116Z,47.30
2018-12-19T02:54:12.723Z,45.00
2018-12-19T02:56:43.203Z,48.63
2018-12-19T02:59:13.877Z,45.13
2018-12-19T03:01:44.390Z,49.43
2018-12-19T03:04:14.945Z,46.90
2018-12-19T03:06:45.487Z,48.67
2018-12-19T03:09:16.069Z,48.90
2018-12-19T03:11:46.640Z,50.50
2018-12-19T03:14:17.190Z,47.20
2018-12-19T03:16:47.715Z,48.83
2018-12-19T03:19:18.283Z,50.53
2018-12-19T03:21:48.837Z,49.47
2018-12-19T03:24:19.437Z,50.03
2018-12-19T03:26:50.028Z,49.23
2018-12-19T03:29:20.651Z,46.13
2018-12-19T03:31:51.231Z,46.27
2018-12-19T03:34:22.953Z,48.77
2018-12-19T03:36:53.507Z,48.97
2018-12-19T03:39:24.085Z,50.27
2018-12-19T03:41:54.656Z,47.60
2018-12-19T03:44:25.278Z,46.87
2018-12-19T03:46:55.924Z,49.27
2018-12-19T03:49:27.027Z,49.20
2018-12-19T03:51:57.609Z,50.27
2018-12-19T03:54:28.746Z,51.70
2018-12-19T03:56:59.957Z,48.10
2018-12-19T03:59:30.516Z,46.67
2018-12-19T04:02:01.102Z,53.07
2018-12-19T04:04:31.689Z,53.03
2018-12-19T04:07:02.461Z,52.47
2018-12-19T04:09:33.046Z,49.70
2018-12-19T04:12:03.687Z,51.57
2018-12-19T04:14:34.399Z,51.57
2018-12-19T04:17:05.348Z,52.03
2018-12-19T04:19:35.882Z,51.60
2018-12-19T04:22:08.529Z,54.47
2018-12-19T04:24:39.082Z,52.03
2018-12-19T04:27:09.626Z,49.10
2018-12-19T04:29:40.690Z,45.90
2018-12-19T04:32:11.466Z,54.87
2018-12-19T04:34:42.111Z,52.53
2018-12-19T04:37:12.657Z,51.63
2018-12-19T04:39:43.209Z,54.43
2018-12-19T04:42:13.815Z,53.40
2018-12-19T04:44:44.431Z,53.13
2018-12-19T04:47:14.921Z,49.40
2018-12-19T04:49:45.447Z,56.77
2018-12-19T04:52:16.059Z,53.67
2018-12-19T04:54:46.631Z,52.83
2018-12-19T04:57:17.213Z,44.43
2018-12-19T04:59:47.963Z,59.63
2018-12-19T05:02:18.553Z,48.97
2018-12-19T05:04:49.194Z,51.87
2018-12-19T05:07:21.283Z,60.77
2018-12-19T05:09:52.060Z,59.93
2018-12-19T05:12:22.622Z,59.57
2018-12-19T05:14:53.391Z,56.80
2018-12-19T05:17:24.024Z,44.77
2018-12-19T05:19:55.024Z,52.80
2018-12-19T05:22:25.650Z,53.17
2018-12-19T05:24:56.285Z,57.87
2018-12-19T05:27:27.878Z,54.80
2018-12-19T05:29:58.542Z,55.10
2018-12-19T05:32:29.052Z,58.10
2018-12-19T05:34:59.698Z,53.67
2018-12-19T05:37:30.278Z,55.97
2018-12-19T05:40:00.903Z,56.00
2018-12-19T05:42:31.500Z,52.73
2018-12-19T05:45:02.107Z,53.67
2018-12-19T05:47:33.094Z,52.17
2018-12-19T05:50:04.279Z,58.07
2018-12-19T05:52:35.512Z,52.40
2018-12-19T05:55:06.900Z,53.00
2018-12-19T05:57:37.706Z,53.33
2018-12-19T06:00:09.176Z,49.70
2018-12-19T06:02:39.720Z,49.43
2018-12-19T06:05:10.302Z,48.33
2018-12-19T06:07:40.980Z,51.17
2018-12-19T06:10:11.680Z,50.33
2018-12-19T06:12:42.368Z,44.23
2018-12-19T06:15:17.668Z,51.73
2018-12-19T06:17:48.738Z,49.57
2018-12-19T06:20:19.393Z,50.63
2018-12-19T06:22:50.098Z,46.23
2018-12-19T06:25:20.744Z,52.60
2018-12-19T06:27:51.447Z,52.63
2018-12-19T06:30:22.725Z,47.10
2018-12-19T06:32:53.606Z,47.23
2018-12-19T06:35:24.414Z,49.33
2018-12-19T06:37:59.856Z,48.30
2018-12-19T06:40:34.297Z,47.80
2018-12-19T06:43:05.127Z,58.07
2018-12-19T06:45:36.020Z,45.80
2018-12-19T06:48:06.674Z,46.70
2018-12-19T06:50:37.272Z,45.90
2018-12-19T06:53:08.234Z,48.00
2018-12-19T06:55:38.988Z,45.97
2018-12-19T06:58:09.598Z,40.60
2018-12-19T07:00:40.130Z,38.20
2018-12-19T07:03:10.901Z,43.03
2018-12-19T07:05:41.581Z,41.90
2018-12-19T07:08:12.553Z,43.17
2018-12-19T07:10:43.792Z,40.77
2018-12-19T07:13:14.327Z,42.60
2018-12-19T07:15:44.932Z,47.77
2018-12-19T07:18:16.580Z,40.77
2018-12-19T07:20:47.225Z,42.40
2018-12-19T07:23:17.854Z,39.77
2018-12-19T07:25:48.490Z,38.03
2018-12-19T07:28:19.094Z,41.67
2018-12-19T07:30:49.652Z,40.17
2018-12-19T07:33:20.175Z,40.70
2018-12-19T07:35:50.905Z,38.03
2018-12-19T07:38:21.509Z,36.00
2018-12-19T07:40:52.063Z,37.50
2018-12-19T07:43:22.573Z,40.80
2018-12-19T07:45:53.426Z,37.43
2018-12-19T07:48:24.156Z,34.47
2018-12-19T07:50:54.687Z,37.97
2018-12-19T07:53:25.243Z,36.63
2018-12-19T07:55:56.057Z,38.33
2018-12-19T07:58:26.617Z,41.53
2018-12-19T08:00:57.189Z,31.83
2018-12-19T08:03:27.746Z,40.53
2018-12-19T08:05:58.308Z,38.00
2018-12-19T08:08:28.882Z,41.03
2018-12-19T08:10:59.527Z,37.93
2018-12-19T08:13:30.057Z,38.50
2018-12-19T08:16:00.731Z,38.83
2018-12-19T08:18:31.339Z,38.17
2018-12-19T08:21:01.844Z,27.73
2018-12-19T08:23:32.489Z,40.33
2018-12-19T08:26:02.977Z,36.50
2018-12-19T08:28:33.569Z,39.87
2018-12-19T08:31:04.236Z,39.60
2018-12-19T08:33:34.865Z,37.57
2018-12-19T08:36:05.459Z,35.03
2018-12-19T08:38:35.990Z,34.10
2018-12-19T08:41:06.528Z,36.93
2018-12-19T08:43:37.302Z,39.07
2018-12-19T08:46:08.970Z,34.83
2018-12-19T08:48:40.330Z,37.77
2018-12-19T08:51:10.902Z,35.93
2018-12-19T08:53:41.527Z,39.43
2018-12-19T08:56:12.459Z,39.53
2018-12-19T08:58:42.952Z,39.83
2018-12-19T09:01:13.438Z,40.83
2018-12-19T09:03:43.943Z,37.67
2018-12-19T09:06:14.510Z,33.60
2018-12-19T09:08:45.056Z,33.73
2018-12-19T09:11:15.645Z,34.57
2018-12-19T09:13:46.331Z,32.73
2018-12-19T09:16:16.914Z,34.50
2018-12-19T09:18:47.434Z,31.97
2018-12-19T09:21:19.740Z,33.07
2018-12-19T09:23:50.335Z,35.83
2018-12-19T09:26:21.943Z,35.13
2018-12-19T09:28:52.406Z,30.37
2018-12-19T09:31:23.423Z,32.87
2018-12-19T09:33:54.039Z,32.00
2018-12-19T09:36:24.934Z,33.37
2018-12-19T09:38:55.678Z,32.03
2018-12-19T09:41:26.475Z,32.20
2018-12-19T09:43:56.977Z,33.27
2018-12-19T09:46:27.450Z,27.63
2018-12-19T09:48:57.934Z,32.07
2018-12-19T09:51:29.045Z,32.93
2018-12-19T09:53:59.572Z,30.00
2018-12-19T09:56:30.363Z,30.67
2018-12-19T09:59:00.865Z,30.97
2018-12-19T10:01:31.417Z,31.53
2018-12-19T10:04:01.992Z,30.77
2018-12-19T10:06:33.790Z,33.33
2018-12-19T10:09:14.879Z,29.17
2018-12-19T10:11:44.007Z,32.13
2018-12-19T10:14:14.618Z,20.37
2018-12-19T10:16:45.182Z,28.00
2018-12-19T10:19:15.672Z,22.93
2018-12-19T10:21:47.404Z,26.97
2018-12-19T10:24:18.106Z,29.03
2018-12-19T10:26:48.606Z,34.23
2018-12-19T10:29:19.299Z,31.93
2018-12-19T10:31:49.787Z,29.47
2018-12-19T10:34:21.427Z,30.73
2018-12-19T10:36:52.124Z,31.83
2018-12-19T10:39:23.226Z,25.43
2018-12-19T10:41:53.712Z,25.33
2018-12-19T10:44:24.690Z,31.57
2018-12-19T10:46:58.095Z,25.97
2018-12-19T10:49:28.616Z,30.93
2018-12-19T10:51:59.106Z,25.43
2018-12-19T10:54:29.622Z,30.77
2018-12-19T10:57:00.110Z,29.83
2018-12-19T10:59:30.593Z,31.13
2018-12-19T11:02:01.145Z,30.70
2018-12-19T11:04:31.912Z,32.37
2018-12-19T11:07:02.461Z,32.30
2018-12-19T11:09:33.233Z,34.17
2018-12-19T11:12:03.904Z,31.93
2018-12-19T11:14:34.509Z,31.23
2018-12-19T11:17:12.019Z,30.60
2018-12-19T11:19:42.510Z,32.30
2018-12-19T11:22:13.110Z,30.33
2018-12-19T11:24:43.589Z,28.97
2018-12-19T11:27:14.080Z,25.43
2018-12-19T11:29:45.117Z,29.47
2018-12-19T11:32:15.586Z,34.50
2018-12-19T11:34:46.081Z,32.80
2018-12-19T11:37:16.730Z,28.83
2018-12-19T11:39:47.204Z,33.33
2018-12-19T11:42:17.718Z,32.77
2018-12-19T11:44:48.167Z,29.07
2018-12-19T11:47:18.766Z,29.97
2018-12-19T11:49:49.419Z,28.97
2018-12-19T11:52:20.351Z,32.57
2018-12-19T11:54:52.252Z,30.13
2018-12-19T11:57:22.834Z,28.03
2018-12-19T11:59:53.490Z,30.57
2018-12-19T12:02:24.229Z,31.47
2018-12-19T12:04:54.978Z,32.80
2018-12-19T12:07:27.731Z,36.40
2018-12-19T12:09:58.394Z,32.77
2018-12-19T12:12:29.050Z,28.77
2018-12-19T12:14:59.717Z,34.37
2018-12-19T12:17:30.384Z,37.07
2018-12-19T12:20:02.156Z,33.17
2018-12-19T12:22:32.658Z,31.93
2018-12-19T12:25:03.308Z,29.77
2018-12-19T12:27:33.958Z,30.73
2018-12-19T12:30:04.636Z,30.30
2018-12-19T12:32:35.545Z,33.63
2018-12-19T12:35:07.543Z,34.17
2018-12-19T12:37:38.183Z,31.70
2018-12-19T12:40:09.869Z,31.97
2018-12-19T12:42:40.552Z,29.83
2018-12-19T12:45:11.249Z,30.57
2018-12-19T12:47:42.474Z,27.60
2018-12-19T12:50:13.143Z,32.33
2018-12-19T12:52:43.671Z,32.63
2018-12-19T12:55:14.276Z,33.73
2018-12-19T12:57:45.721Z,33.90
2018-12-19T13:00:16.678Z,30.43
2018-12-19T13:02:47.207Z,28.87
2018-12-19T13:05:17.797Z,23.50
2018-12-19T13:07:48.531Z,28.93
2018-12-19T13:10:19.200Z,30.50
2018-12-19T13:12:49.801Z,27.40
2018-12-19T13:15:53.815Z,29.33
2018-12-19T13:21:26.340Z,27.93
2018-12-19T13:23:58.709Z,26.43
2018-12-19T13:26:30.780Z,28.73
2018-12-19T13:29:18.815Z,23.73
2018-12-19T13:31:50.856Z,27.37
2018-12-19T13:34:22.446Z,24.93
2018-12-19T13:36:53.969Z,26.33
2018-12-19T13:39:25.098Z,24.83
2018-12-19T13:41:56.982Z,27.80
2018-12-19T13:44:27.635Z,25.97
2018-12-19T13:46:58.905Z,26.73
2018-12-19T13:49:30.126Z,29.70
2018-12-19T13:52:00.725Z,30.53
2018-12-19T13:54:31.339Z,51.20
2018-12-19T13:57:02.066Z,40.70
2018-12-19T13:59:32.737Z,43.27
2018-12-19T14:02:03.493Z,34.63
2018-12-19T14:04:34.309Z,37.00
2018-12-19T14:07:06.266Z,41.80
2018-12-19T14:09:37.034Z,32.67
2018-12-19T14:12:12.263Z,37.43
2018-12-19T14:14:40.261Z,33.83
2018-12-19T14:17:10.861Z,34.73
2018-12-19T14:19:41.425Z,28.40
2018-12-19T14:22:12.072Z,26.53
2018-12-19T14:24:42.677Z,28.30
2018-12-19T14:27:13.276Z,27.10
2018-12-19T14:29:43.883Z,28.87
2018-12-19T14:32:14.525Z,26.20
2018-12-19T14:34:45.144Z,27.30
2018-12-19T14:37:15.741Z,25.10
2018-12-19T14:39:46.393Z,27.23
2018-12-19T14:42:19.191Z,29.67
2018-12-19T14:44:49.656Z,41.07
2018-12-19T14:47:20.195Z,34.57
2018-12-19T14:49:53.220Z,30.60
2018-12-19T14:52:24.532Z,26.70
2018-12-19T14:54:55.518Z,27.63
2018-12-19T14:57:27.157Z,28.03
2018-12-19T15:02:56.611Z,40.73
2018-12-19T15:05:27.178Z,39.57
2018-12-19T15:07:58.003Z,36.87
2018-12-19T15:10:28.720Z,32.13
2018-12-19T15:12:59.423Z,32.00
2018-12-19T15:15:33.925Z,31.80
2018-12-19T15:18:09.342Z,30.20
2018-12-19T15:20:41.208Z,28.13
2018-12-19T15:23:12.888Z,27.30
2018-12-19T15:25:43.529Z,25.00
2018-12-19T15:28:14.534Z,24.73
2018-12-19T15:30:45.204Z,25.00
2018-12-19T15:33:15.814Z,24.33
2018-12-19T15:35:46.330Z,23.97
2018-12-19T15:38:16.898Z,32.87
2018-12-19T15:40:47.537Z,37.07
2018-12-19T15:43:18.150Z,27.60
2018-12-19T15:45:48.704Z,23.87
2018-12-19T15:48:19.360Z,25.47
2018-12-19T15:50:50.066Z,32.33
2018-12-19T15:53:21.652Z,30.73
2018-12-19T15:55:52.254Z,26.37
2018-12-19T15:58:23.030Z,24.67
2018-12-19T16:00:53.621Z,23.77
2018-12-19T16:03:24.144Z,23.93
2018-12-19T16:06:07.078Z,24.03
2018-12-19T16:08:37.692Z,21.53
2018-12-19T16:11:08.180Z,21.10
2018-12-19T16:13:38.759Z,22.37
2018-12-19T16:16:09.466Z,23.53
2018-12-19T16:18:40.037Z,25.07
2018-12-19T16:21:10.557Z,24.80
2018-12-19T16:23:41.698Z,34.00
2018-12-19T16:26:12.353Z,32.50
2018-12-19T16:28:43.019Z,32.17
2018-12-19T16:31:13.695Z,32.77
2018-12-19T16:33:44.801Z,31.93
2018-12-19T16:36:15.345Z,27.73
2018-12-19T16:38:45.887Z,25.17
2018-12-19T16:41:16.460Z,37.23
2018-12-19T16:43:47.056Z,34.60
2018-12-19T16:46:18.352Z,34.40
2018-12-19T16:48:48.860Z,37.07
2018-12-19T16:51:19.726Z,37.77
2018-12-19T16:53:50.371Z,34.90
2018-12-19T16:56:20.908Z,35.93
2018-12-19T16:58:51.596Z,39.90
2018-12-19T17:01:22.162Z,39.80
2018-12-19T17:03:52.690Z,38.47
2018-12-19T17:06:23.262Z,41.10
2018-12-19T17:08:53.766Z,39.37
2018-12-19T17:11:24.437Z,49.90
2018-12-19T17:13:55.208Z,59.97
2018-12-19T17:16:26.511Z,44.37
2018-12-19T17:18:56.966Z,49.97
2018-12-19T17:21:27.480Z,49.10
2018-12-19T17:23:58.030Z,51.07
2018-12-19T17:26:28.486Z,44.77
2018-12-19T17:28:59.067Z,49.13
2018-12-19T17:31:29.506Z,58.07
2018-12-19T17:34:00.209Z,46.10
2018-12-19T17:36:31.745Z,48.20
2018-12-19T17:39:02.410Z,49.00
2018-12-19T17:41:34.972Z,42.63
2018-12-19T17:44:05.529Z,39.40
2018-12-19T17:46:36.186Z,40.87
2018-12-19T17:49:06.723Z,42.97
2018-12-19T17:51:37.343Z,45.93
2018-12-19T17:54:07.874Z,45.23
2018-12-19T17:56:38.403Z,41.43
2018-12-19T17:59:09.013Z,39.57
2018-12-19T18:01:39.682Z,42.60
2018-12-19T18:04:26.701Z,39.30
2018-12-19T18:06:57.350Z,40.17
2018-12-19T18:09:29.409Z,37.90
2018-12-19T18:11:59.901Z,40.23
2018-12-19T18:14:30.439Z,37.70
2018-12-19T18:17:00.904Z,38.23
2018-12-19T18:19:31.449Z,37.70
2018-12-19T18:22:02.070Z,46.13
2018-12-19T18:24:32.704Z,42.63
2018-12-19T18:27:03.234Z,43.93
2018-12-19T18:29:33.807Z,46.27
2018-12-19T18:32:04.356Z,43.33
2018-12-19T18:34:34.901Z,42.83
2018-12-19T18:37:05.469Z,41.83
2018-12-19T18:39:36.009Z,46.70
2018-12-19T18:42:06.678Z,45.87
2018-12-19T18:44:37.214Z,42.97
2018-12-19T18:47:07.722Z,39.73
2018-12-19T18:49:38.189Z,37.07
2018-12-19T18:52:10.436Z,36.60
2018-12-19T18:54:40.933Z,38.80
2018-12-19T18:57:11.527Z,37.93
2018-12-19T18:59:42.217Z,37.73
2018-12-19T19:02:13.139Z,34.40
2018-12-19T19:04:43.607Z,39.70
2018-12-19T19:07:14.165Z,38.73
2018-12-19T19:12:50.425Z,42.20
2018-12-19T19:15:20.938Z,40.57
2018-12-19T19:17:51.425Z,44.33
2018-12-19T19:20:22.006Z,47.50
2018-12-19T19:22:52.614Z,43.60
2018-12-19T19:25:23.754Z,42.60
2018-12-19T19:27:54.218Z,44.57
2018-12-19T19:30:24.658Z,41.40
2018-12-19T19:32:55.228Z,44.73
2018-12-19T19:35:25.672Z,48.83
2018-12-19T19:37:56.215Z,48.60
2018-12-19T19:40:26.706Z,44.47
2018-12-19T19:42:57.365Z,46.20
2018-12-19T19:45:27.911Z,32.83
2018-12-19T19:47:58.459Z,42.03
2018-12-19T19:50:29.023Z,44.70
2018-12-19T19:52:59.606Z,46.13
2018-12-19T19:55:30.268Z,41.20
2018-12-19T19:58:02.824Z,44.90
2018-12-19T20:00:33.789Z,44.73
2018-12-19T20:03:04.461Z,44.57
2018-12-19T20:05:35.707Z,46.33
2018-12-19T20:08:06.265Z,48.17
2018-12-19T20:10:36.815Z,43.30
2018-12-19T20:13:08.818Z,42.47
2018-12-19T20:15:40.374Z,42.20
2018-12-19T20:18:13.785Z,42.63
2018-12-19T20:20:44.280Z,41.03
2018-12-19T20:23:14.912Z,41.07
2018-12-19T20:26:08.355Z,40.63
2018-12-19T20:29:06.862Z,40.17
2018-12-19T20:31:43.823Z,40.43
2018-12-19T20:34:15.233Z,37.20
2018-12-19T20:37:04.520Z,38.20
2018-12-19T20:39:37.301Z,39.37
2018-12-19T20:42:07.848Z,37.07
2018-12-19T20:44:38.477Z,39.43
2018-12-19T20:47:09.037Z,42.03
2018-12-19T20:49:39.537Z,43.03
2018-12-19T20:52:10.406Z,49.63
2018-12-19T20:54:41.354Z,42.03
2018-12-19T20:57:11.992Z,48.17
2018-12-19T20:59:42.663Z,50.00
2018-12-19T21:02:13.421Z,43.40
2018-12-19T21:04:44.118Z,45.93
2018-12-19T21:07:14.888Z,58.73
2018-12-19T21:09:45.525Z,63.07
2018-12-19T21:12:16.065Z,59.03
2018-12-19T21:14:47.673Z,57.23
2018-12-19T21:17:23.537Z,51.93
2018-12-19T21:19:54.035Z,47.43
2018-12-19T21:22:24.571Z,46.63
2018-12-19T21:24:55.044Z,55.37
2018-12-19T21:27:25.517Z,59.53
2018-12-19T21:30:03.072Z,61.57
2018-12-19T21:32:40.298Z,52.63
2018-12-19T21:35:11.046Z,51.73
2018-12-19T21:37:41.654Z,49.17
2018-12-19T21:40:12.395Z,49.93
2018-12-19T21:42:43.239Z,49.50
2018-12-19T21:45:16.903Z,47.60
2018-12-19T21:47:47.587Z,46.70
2018-12-19T21:50:18.085Z,42.43
2018-12-19T21:52:48.722Z,45.80
2018-12-19T21:55:21.951Z,42.47
2018-12-19T21:57:52.738Z,42.97
2018-12-19T22:03:12.730Z,43.57
2018-12-19T22:05:43.437Z,47.23
2018-12-19T22:08:14.077Z,45.97
2018-12-19T22:10:45.634Z,46.73
2018-12-19T22:13:17.170Z,47.97
2018-12-19T22:15:48.323Z,46.03
2018-12-19T22:18:24.367Z,48.90
2018-12-19T22:20:56.430Z,48.00
2018-12-19T22:23:27.226Z,49.37
2018-12-19T22:25:59.027Z,50.07
2018-12-19T22:28:29.639Z,56.33
2018-12-19T22:31:00.084Z,50.83
2018-12-19T22:33:30.563Z,51.33
2018-12-19T22:36:01.055Z,47.10
2018-12-19T22:38:31.572Z,46.90
2018-12-19T22:41:02.417Z,41.33
2018-12-19T22:43:32.964Z,43.50
2018-12-19T22:46:03.636Z,44.57
2018-12-19T22:48:34.165Z,45.03
2018-12-19T22:51:04.863Z,45.80
2018-12-19T22:53:35.511Z,46.30
2018-12-19T22:56:06.076Z,46.30
2018-12-19T22:58:36.803Z,46.03
2018-12-19T23:02:14.571Z,45.47
2018-12-19T23:04:45.124Z,40.57
2018-12-19T23:07:15.603Z,43.80
2018-12-19T23:09:47.283Z,44.27
2018-12-19T23:12:17.822Z,41.63
2018-12-19T23:14:48.558Z,41.20
2018-12-19T23:17:29.866Z,43.33
2018-12-19T23:20:06.668Z,42.00
2018-12-19T23:22:42.821Z,42.87
2018-12-19T23:25:18.991Z,43.30
2018-12-19T23:27:51.657Z,43.67
2018-12-19T23:30:23.148Z,43.20
2018-12-19T23:32:53.731Z,41.83
2018-12-19T23:35:24.458Z,39.03
2018-12-19T23:37:55.059Z,37.10
2018-12-19T23:40:25.707Z,42.43
2018-12-19T23:42:57.441Z,42.00
2018-12-19T23:45:28.006Z,40.70
2018-12-19T23:47:59.588Z,40.83
2018-12-19T23:50:30.106Z,41.07
2018-12-19T23:53:00.639Z,43.13
2018-12-19T23:55:31.189Z,40.43
2018-12-19T23:58:01.745Z,41.87
